Time;durP1;ratioP1;P1;durP2;ratioP2;P2;SDS_P1;SDS_P2;PMS_P1;PMS_P2;Temp;Humidity;BMP_temperature;BMP_pressure;BME280_temperature;BME280_humidity;BME280_pressure;Samples;Min_cycle;Max_cycle;Signal;HPM_P1;HPM_P2
2023/05/19 00:02:39;;;;;;;;;;;;;;;13.20;74.47;99872.77;136013;1275;22546;-66
2023/05/19 00:05:44;;;;;;;;;;;;;;;13.36;74.11;99869.83;136000;1275;22504;-64
2023/05/19 00:08:48;;;;;;;;;;;;;;;13.39;74.00;99868.81;135881;1275;22530;-64
2023/05/19 00:12:00;;;;;;;;;;;;;;;13.35;74.26;99864.80;135986;1275;22494;-65
2023/05/19 00:15:04;;;;;;;;;;;;;;;13.44;73.49;99866.95;131919;1275;5362159;-64
2023/05/19 00:18:07;;;;;;;;;;;;;;;13.41;73.32;99864.86;135934;1275;24206;-66
2023/05/19 00:21:10;;;;;;;;;;;;;;;13.29;73.90;99859.52;135988;1275;22547;-64
2023/05/19 00:24:16;;;;;;;;;;;;;;;13.21;74.03;99858.70;136020;1275;25247;-64
2023/05/19 00:27:20;;;;;;;;;;;;;;;13.12;74.17;99861.29;135968;1275;22500;-65
2023/05/19 00:30:24;;;;;;;;;;;;;;;13.12;74.11;99859.02;135995;1275;22502;-66
2023/05/19 00:33:28;;;;;;;;;;;;;;;13.12;74.31;99857.95;135955;1275;22513;-65
2023/05/19 00:36:31;;;;;;;;;;;;;;;13.08;74.38;99858.18;136015;1275;23344;-63
2023/05/19 00:39:35;;;;;;;;;;;;;;;13.10;74.38;99854.92;135918;1275;25209;-63
2023/05/19 00:42:38;;;;;;;;;;;;;;;13.12;74.38;99855.38;136000;1275;22498;-63
2023/05/19 00:45:42;;;;;;;;;;;;;;;13.12;74.19;99856.20;136020;1275;22523;-64
2023/05/19 00:48:45;;;;;;;;;;;;;;;13.09;74.28;99857.30;135955;1275;22504;-64
2023/05/19 00:51:49;;;;;;;;;;;;;;;13.00;74.51;99855.99;135982;1275;22505;-66
2023/05/19 00:54:53;;;;;;;;;;;;;;;12.94;75.22;99854.22;135981;1275;22525;-63
2023/05/19 00:57:57;;;;;;;;;;;;;;;13.01;75.12;99853.30;135864;1275;22474;-64
2023/05/19 01:01:02;;;;;;;;;;;;;;;12.96;75.63;99854.42;135868;1275;22562;-64
2023/05/19 01:04:08;;;;;;;;;;;;;;;12.97;75.70;99857.05;135958;1275;22519;-63
2023/05/19 01:07:12;;;;;;;;;;;;;;;13.01;75.97;99862.05;135974;1275;22515;-66
2023/05/19 01:10:19;;;;;;;;;;;;;;;13.12;75.76;99857.27;135973;1275;22502;-67
2023/05/19 01:13:22;;;;;;;;;;;;;;;13.27;75.86;99851.69;135952;1275;22505;-65
2023/05/19 01:16:25;;;;;;;;;;;;;;;13.33;75.52;99848.06;135988;1275;25387;-64
2023/05/19 01:19:29;;;;;;;;;;;;;;;13.37;75.44;99845.58;135980;1256;23001;-68
2023/05/19 01:22:35;;;;;;;;;;;;;;;13.39;75.53;99844.92;135962;1275;22509;-65
2023/05/19 01:25:38;;;;;;;;;;;;;;;13.35;75.60;99846.34;135947;1275;22501;-64
2023/05/19 01:28:42;;;;;;;;;;;;;;;13.41;75.68;99844.10;135944;1275;25469;-66
2023/05/19 01:31:47;;;;;;;;;;;;;;;13.41;75.60;99842.38;135989;1275;22549;-64
2023/05/19 01:34:50;;;;;;;;;;;;;;;13.42;75.39;99839.85;135954;1275;22507;-64
2023/05/19 01:37:53;;;;;;;;;;;;;;;13.38;75.43;99840.60;135980;1263;22512;-64
2023/05/19 01:40:56;;;;;;;;;;;;;;;13.37;75.54;99836.61;135824;1275;22509;-65
2023/05/19 01:43:59;;;;;;;;;;;;;;;13.43;75.24;99836.27;135859;1275;22510;-66
2023/05/19 01:47:01;;;;;;;;;;;;;;;13.32;75.62;99837.23;135975;1260;22591;-64
2023/05/19 01:50:04;;;;;;;;;;;;;;;13.33;75.28;99833.09;135994;1261;22519;-63
2023/05/19 01:53:07;;;;;;;;;;;;;;;13.28;75.48;99831.45;135983;1258;22508;-65
2023/05/19 01:56:14;;;;;;;;;;;;;;;13.20;76.10;99827.16;135876;1275;22524;-64
2023/05/19 01:59:18;;;;;;;;;;;;;;;13.07;76.72;99825.27;135927;1275;25361;-63
2023/05/19 02:02:22;;;;;;;;;;;;;;;13.01;76.92;99824.84;135989;1257;22780;-65
2023/05/19 02:05:28;;;;;;;;;;;;;;;12.96;77.33;99823.88;135964;1258;22607;-64
2023/05/19 02:08:31;;;;;;;;;;;;;;;13.01;77.01;99826.60;135939;1275;22526;-64
2023/05/19 02:11:35;;;;;;;;;;;;;;;12.98;77.28;99829.91;135969;1275;25341;-63
2023/05/19 02:14:38;;;;;;;;;;;;;;;12.98;77.43;99831.20;135958;1275;22517;-64
2023/05/19 02:17:41;;;;;;;;;;;;;;;13.02;77.53;99830.98;135976;1275;25483;-67
2023/05/19 02:20:44;;;;;;;;;;;;;;;13.05;77.53;99829.06;135949;1258;22455;-66
2023/05/19 02:23:47;;;;;;;;;;;;;;;13.04;77.77;99826.45;135750;1275;24043;-65
2023/05/19 02:26:54;;;;;;;;;;;;;;;13.07;77.77;99824.69;135928;1275;22497;-63
2023/05/19 02:29:57;;;;;;;;;;;;;;;13.05;78.37;99824.48;135935;1275;24208;-67
2023/05/19 02:33:01;;;;;;;;;;;;;;;13.18;78.06;99820.23;135959;1275;22524;-64
2023/05/19 02:36:05;;;;;;;;;;;;;;;13.31;78.01;99819.33;135988;1275;22496;-68
2023/05/19 02:39:09;;;;;;;;;;;;;;;13.40;77.51;99818.34;135998;1275;22520;-69
2023/05/19 02:42:16;;;;;;;;;;;;;;;13.43;77.60;99817.46;135855;1275;22503;-64
2023/05/19 02:45:20;;;;;;;;;;;;;;;13.58;77.18;99816.76;135988;1275;22494;-67
2023/05/19 02:48:23;;;;;;;;;;;;;;;13.58;76.98;99814.52;135987;1275;22664;-66
2023/05/19 02:51:27;;;;;;;;;;;;;;;13.52;77.18;99815.53;135978;1275;22523;-66
2023/05/19 02:54:31;;;;;;;;;;;;;;;13.57;77.27;99811.75;135937;1275;22531;-65
2023/05/19 02:57:34;;;;;;;;;;;;;;;13.57;77.09;99813.33;135991;1275;22530;-68
2023/05/19 03:00:38;;;;;;;;;;;;;;;13.48;77.48;99811.05;135996;1268;24212;-64
2023/05/19 03:03:48;;;;;;;;;;;;;;;13.38;77.67;99809.85;135974;1275;22725;-65
2023/05/19 03:06:55;;;;;;;;;;;;;;;13.29;78.47;99806.59;135886;1275;23038;-64
2023/05/19 03:09:58;;;;;;;;;;;;;;;13.15;79.00;99807.90;135967;1275;22519;-70
2023/05/19 03:13:02;;;;;;;;;;;;;;;13.08;79.29;99802.04;135972;1275;22513;-64
2023/05/19 03:16:06;;;;;;;;;;;;;;;13.03;79.66;99800.54;135989;1275;22606;-64
2023/05/19 03:19:10;;;;;;;;;;;;;;;13.01;79.63;99796.60;135996;1275;25375;-64
2023/05/19 03:22:14;;;;;;;;;;;;;;;13.00;79.98;99796.48;135841;1275;22499;-64
2023/05/19 03:25:18;;;;;;;;;;;;;;;12.83;80.96;99797.91;136005;1275;24041;-68
2023/05/19 03:28:22;;;;;;;;;;;;;;;12.79;81.40;99799.91;135975;1275;22505;-66
2023/05/19 03:31:26;;;;;;;;;;;;;;;12.87;81.23;99798.58;135958;1275;22501;-66
2023/05/19 03:34:31;;;;;;;;;;;;;;;12.92;81.32;99803.27;135982;1275;22523;-70
2023/05/19 03:37:35;;;;;;;;;;;;;;;13.01;81.53;99804.13;135976;1275;22527;-64
2023/05/19 03:40:40;;;;;;;;;;;;;;;13.10;81.50;99808.02;135882;1275;22516;-68
2023/05/19 03:43:44;;;;;;;;;;;;;;;13.17;81.66;99809.58;135979;1275;22510;-64
2023/05/19 03:46:48;;;;;;;;;;;;;;;13.31;81.43;99811.08;135956;1275;22515;-65
2023/05/19 03:49:52;;;;;;;;;;;;;;;13.39;80.94;99809.97;135975;1275;22517;-66
2023/05/19 03:52:55;;;;;;;;;;;;;;;13.48;80.62;99813.49;135965;1275;23854;-65
2023/05/19 03:56:00;;;;;;;;;;;;;;;13.52;80.61;99809.58;135972;1275;24183;-64
2023/05/19 03:59:04;;;;;;;;;;;;;;;13.58;80.53;99811.54;135928;1275;22506;-64
2023/05/19 04:02:08;;;;;;;;;;;;;;;13.68;80.53;99811.45;135859;1275;22537;-65
2023/05/19 04:05:12;;;;;;;;;;;;;;;13.75;80.36;99816.66;135997;1275;22506;-64
2023/05/19 04:08:14;;;;;;;;;;;;;;;13.75;79.89;99815.98;135992;1275;25333;-64
2023/05/19 04:11:20;;;;;;;;;;;;;;;13.62;80.35;99817.78;135945;1275;24233;-64
2023/05/19 04:14:24;;;;;;;;;;;;;;;13.56;80.53;99825.88;135982;1275;22529;-65
2023/05/19 04:17:28;;;;;;;;;;;;;;;13.53;80.90;99826.54;135932;1275;22507;-66
2023/05/19 04:20:31;;;;;;;;;;;;;;;13.47;81.51;99824.09;135958;1275;22502;-66
2023/05/19 04:23:35;;;;;;;;;;;;;;;13.44;81.71;99821.98;135954;1275;22502;-63
2023/05/19 04:26:41;;;;;;;;;;;;;;;13.31;82.59;99821.26;135916;1275;22528;-64
2023/05/19 04:29:47;;;;;;;;;;;;;;;13.28;83.34;99815.65;135915;1275;23856;-66
2023/05/19 04:32:50;;;;;;;;;;;;;;;13.38;83.25;99812.31;135987;1275;22513;-66
2023/05/19 04:35:54;;;;;;;;;;;;;;;13.42;83.39;99809.59;135961;1275;25303;-66
2023/05/19 04:39:01;;;;;;;;;;;;;;;13.58;82.94;99803.99;135945;1275;22493;-66
2023/05/19 04:42:04;;;;;;;;;;;;;;;13.76;82.92;99794.80;135994;1275;22633;-66
2023/05/19 04:45:08;;;;;;;;;;;;;;;13.85;81.91;99795.36;135930;1275;22494;-70
2023/05/19 04:48:12;;;;;;;;;;;;;;;13.76;82.52;99798.02;135967;1275;22509;-65
2023/05/19 04:51:17;;;;;;;;;;;;;;;14.04;81.09;99798.43;135903;1275;22509;-67
2023/05/19 04:54:21;;;;;;;;;;;;;;;14.17;80.38;99799.45;135969;1275;22525;-66
2023/05/19 04:57:25;;;;;;;;;;;;;;;14.19;80.19;99800.73;135956;1275;22499;-64
2023/05/19 05:00:29;;;;;;;;;;;;;;;14.25;79.91;99798.29;135976;1275;22970;-64
2023/05/19 05:03:33;;;;;;;;;;;;;;;14.27;79.76;99797.96;135887;1275;22507;-65
2023/05/19 05:06:39;;;;;;;;;;;;;;;14.30;79.63;99800.41;135955;1275;23317;-67
2023/05/19 05:09:43;;;;;;;;;;;;;;;14.35;79.82;99806.80;136010;1275;22517;-64
2023/05/19 05:12:46;;;;;;;;;;;;;;;14.36;79.74;99802.14;136021;1275;22554;-64
2023/05/19 05:15:55;;;;;;;;;;;;;;;14.45;79.75;99800.54;136003;1275;25627;-66
2023/05/19 05:18:58;;;;;;;;;;;;;;;14.63;79.84;99795.57;136009;1275;22536;-68
2023/05/19 05:22:01;;;;;;;;;;;;;;;14.77;79.28;99796.50;136009;1275;23308;-64
2023/05/19 05:25:04;;;;;;;;;;;;;;;14.92;78.55;99794.29;135991;1275;22505;-65
2023/05/19 05:28:07;;;;;;;;;;;;;;;15.01;77.90;99795.52;135995;1275;25330;-64
2023/05/19 05:31:10;;;;;;;;;;;;;;;15.03;77.26;99798.73;136020;1275;22504;-70
2023/05/19 05:34:13;;;;;;;;;;;;;;;14.98;78.06;99802.41;136003;1275;25460;-66
2023/05/19 05:37:20;;;;;;;;;;;;;;;15.00;77.77;99806.63;136036;1275;22501;-69
2023/05/19 05:40:23;;;;;;;;;;;;;;;15.06;77.11;99809.81;136008;1275;22502;-66
2023/05/19 05:43:26;;;;;;;;;;;;;;;15.15;76.87;99811.88;136074;1275;22486;-64
2023/05/19 05:46:29;;;;;;;;;;;;;;;15.27;77.13;99817.11;136037;1275;22517;-65
2023/05/19 05:49:36;;;;;;;;;;;;;;;15.42;76.19;99811.75;135964;1275;22505;-64
2023/05/19 05:52:40;;;;;;;;;;;;;;;15.52;75.81;99814.57;136018;1275;22497;-68
2023/05/19 05:55:43;;;;;;;;;;;;;;;15.63;75.80;99817.09;136021;1275;22526;-66
2023/05/19 05:58:49;;;;;;;;;;;;;;;15.68;75.67;99814.05;136018;1275;22517;-68
2023/05/19 06:01:52;;;;;;;;;;;;;;;15.81;75.83;99812.70;135981;1275;22537;-66
2023/05/19 06:04:56;;;;;;;;;;;;;;;16.04;76.03;99812.58;136026;1275;22540;-66
2023/05/19 06:08:00;;;;;;;;;;;;;;;16.17;74.17;99811.50;135989;1275;22497;-68
2023/05/19 06:11:07;;;;;;;;;;;;;;;16.00;73.30;99816.03;136029;1275;22490;-66
2023/05/19 06:14:11;;;;;;;;;;;;;;;16.11;73.96;99818.83;136040;1275;22609;-70
2023/05/19 06:17:15;;;;;;;;;;;;;;;16.19;74.72;99824.80;136041;1275;22503;-64
2023/05/19 06:20:18;;;;;;;;;;;;;;;16.33;73.78;99821.59;135954;1275;22501;-67
2023/05/19 06:23:22;;;;;;;;;;;;;;;16.46;72.53;99826.13;135880;1275;22627;-67
2023/05/19 06:26:26;;;;;;;;;;;;;;;16.55;72.28;99824.98;135807;1275;22506;-65
2023/05/19 06:29:29;;;;;;;;;;;;;;;16.80;72.99;99828.72;135977;1275;22513;-66
2023/05/19 06:32:33;;;;;;;;;;;;;;;17.09;71.48;99830.89;135961;1275;22502;-69
2023/05/19 06:35:37;;;;;;;;;;;;;;;17.12;70.68;99835.85;135968;1275;22502;-64
2023/05/19 06:38:42;;;;;;;;;;;;;;;17.10;70.86;99836.30;135950;1275;22500;-70
2023/05/19 06:41:46;;;;;;;;;;;;;;;17.14;70.74;99840.96;135976;1275;22561;-66
2023/05/19 06:44:50;;;;;;;;;;;;;;;17.16;70.69;99841.20;135963;1275;22512;-71
2023/05/19 06:47:53;;;;;;;;;;;;;;;17.05;69.13;99844.81;135890;1275;22556;-64
2023/05/19 06:50:57;;;;;;;;;;;;;;;16.99;70.06;99844.88;135929;1275;25281;-63
2023/05/19 06:54:00;;;;;;;;;;;;;;;16.94;68.64;99840.43;135966;1275;22511;-64
2023/05/19 06:57:04;;;;;;;;;;;;;;;16.91;68.56;99841.37;135905;1275;22500;-63
2023/05/19 07:00:11;;;;;;;;;;;;;;;17.06;69.16;99840.45;135989;1275;22511;-63
2023/05/19 07:03:14;;;;;;;;;;;;;;;17.22;69.95;99842.31;135956;1275;22496;-65
2023/05/19 07:06:18;;;;;;;;;;;;;;;17.32;69.27;99842.83;135996;1275;22580;-64
2023/05/19 07:09:22;;;;;;;;;;;;;;;17.37;69.85;99845.49;135966;1275;25454;-65
2023/05/19 07:12:26;;;;;;;;;;;;;;;17.33;67.82;99848.10;135930;1275;22500;-67
2023/05/19 07:15:32;;;;;;;;;;;;;;;17.11;68.04;99853.19;135993;1275;22537;-64
2023/05/19 07:18:36;;;;;;;;;;;;;;;17.11;68.19;99852.52;135983;1275;22520;-63
2023/05/19 07:21:41;;;;;;;;;;;;;;;17.26;68.12;99854.96;135945;1275;22502;-64
2023/05/19 07:24:44;;;;;;;;;;;;;;;17.40;67.67;99849.16;135911;1275;22614;-65
2023/05/19 07:27:48;;;;;;;;;;;;;;;17.40;67.36;99845.79;135995;1275;22603;-68
2023/05/19 07:30:52;;;;;;;;;;;;;;;17.43;67.42;99845.76;135992;1275;22514;-64
2023/05/19 07:33:56;;;;;;;;;;;;;;;17.55;68.10;99843.14;135963;1275;23266;-63
2023/05/19 07:36:59;;;;;;;;;;;;;;;17.50;66.78;99842.42;135985;1275;22515;-65
2023/05/19 07:40:06;;;;;;;;;;;;;;;17.37;66.90;99842.71;135955;1275;22544;-65
2023/05/19 07:43:10;;;;;;;;;;;;;;;17.35;67.42;99842.48;135996;1275;22508;-66
2023/05/19 07:46:14;;;;;;;;;;;;;;;17.40;66.97;99842.64;136019;1275;22509;-68
2023/05/19 07:49:18;;;;;;;;;;;;;;;17.49;66.80;99842.82;135975;1275;22504;-63
2023/05/19 07:52:21;;;;;;;;;;;;;;;17.34;66.61;99846.48;135960;1275;22509;-69
2023/05/19 07:55:25;;;;;;;;;;;;;;;17.25;67.48;99850.58;135943;1275;22501;-65
2023/05/19 07:58:29;;;;;;;;;;;;;;;17.35;66.63;99854.19;136022;1275;22501;-69
2023/05/19 08:01:32;;;;;;;;;;;;;;;17.32;66.49;99852.91;135990;1275;22537;-68
2023/05/19 08:04:36;;;;;;;;;;;;;;;17.44;67.31;99853.63;135990;1275;22511;-68
2023/05/19 08:07:39;;;;;;;;;;;;;;;17.61;66.66;99846.39;135986;1275;22503;-68
2023/05/19 08:10:43;;;;;;;;;;;;;;;17.63;65.74;99845.86;135983;1275;22509;-68
2023/05/19 08:13:47;;;;;;;;;;;;;;;17.63;65.98;99848.39;136032;1275;22531;-65
2023/05/19 08:16:50;;;;;;;;;;;;;;;17.55;65.85;99844.67;136001;1275;22536;-66
2023/05/19 08:19:53;;;;;;;;;;;;;;;17.46;65.73;99845.90;135916;1271;22610;-66
2023/05/19 08:22:58;;;;;;;;;;;;;;;17.34;66.12;99838.61;135869;1275;25208;-63
2023/05/19 08:26:06;;;;;;;;;;;;;;;17.27;66.22;99834.90;136035;1275;22534;-64
2023/05/19 08:29:09;;;;;;;;;;;;;;;17.27;66.34;99836.65;135945;1275;22501;-65
2023/05/19 08:32:12;;;;;;;;;;;;;;;17.23;65.91;99836.83;135971;1268;22498;-63
2023/05/19 08:35:16;;;;;;;;;;;;;;;17.35;65.75;99837.86;135932;1275;22506;-66
2023/05/19 08:38:19;;;;;;;;;;;;;;;17.43;66.00;99838.20;135941;1257;22511;-63
2023/05/19 08:41:30;;;;;;;;;;;;;;;17.60;66.33;99836.70;135938;1275;23597;-63
2023/05/19 08:44:33;;;;;;;;;;;;;;;17.69;66.23;99838.02;135814;1275;22502;-65
2023/05/19 08:47:36;;;;;;;;;;;;;;;17.99;65.51;99837.44;135835;1275;25225;-65
2023/05/19 08:50:40;;;;;;;;;;;;;;;18.10;64.90;99838.50;135891;1275;22510;-62
2023/05/19 08:53:44;;;;;;;;;;;;;;;18.15;64.86;99837.23;135895;1275;22980;-64
2023/05/19 08:56:47;;;;;;;;;;;;;;;18.26;63.67;99842.64;135978;1275;22528;-64
2023/05/19 08:59:53;;;;;;;;;;;;;;;18.16;64.10;99840.53;135960;1275;22508;-65
2023/05/19 09:02:59;;;;;;;;;;;;;;;18.09;64.00;99843.17;135920;1275;25464;-63
2023/05/19 09:06:02;;;;;;;;;;;;;;;18.16;64.60;99839.47;135922;1275;22514;-62
2023/05/19 09:09:05;;;;;;;;;;;;;;;17.99;64.92;99840.62;135989;1275;22528;-63
2023/05/19 09:12:08;;;;;;;;;;;;;;;17.92;64.32;99839.70;135919;1258;22517;-63
2023/05/19 09:15:15;;;;;;;;;;;;;;;17.81;64.49;99843.88;135958;1275;22518;-64
2023/05/19 09:18:18;;;;;;;;;;;;;;;17.79;65.39;99839.72;136003;1257;22587;-62
2023/05/19 09:21:21;;;;;;;;;;;;;;;17.79;64.87;99844.52;135944;1275;22657;-64
2023/05/19 09:24:24;;;;;;;;;;;;;;;17.88;65.39;99839.64;135942;1275;22509;-64
2023/05/19 09:27:27;;;;;;;;;;;;;;;18.07;64.97;99839.07;135854;1269;22487;-63
2023/05/19 09:30:30;;;;;;;;;;;;;;;18.23;64.43;99839.29;135976;1275;23841;-65
2023/05/19 09:33:34;;;;;;;;;;;;;;;18.27;63.55;99840.94;135964;1275;22518;-63
2023/05/19 09:36:37;;;;;;;;;;;;;;;18.35;63.86;99837.86;135945;1275;22504;-64
2023/05/19 09:39:40;;;;;;;;;;;;;;;18.45;63.39;99842.77;136002;1257;22505;-64
2023/05/19 09:42:44;;;;;;;;;;;;;;;18.58;62.77;99843.13;136011;1275;22523;-63
2023/05/19 09:45:47;;;;;;;;;;;;;;;18.54;62.74;99837.46;135931;1275;22508;-62
2023/05/19 09:48:50;;;;;;;;;;;;;;;18.56;63.29;99839.78;135946;1275;22513;-63
2023/05/19 09:51:53;;;;;;;;;;;;;;;18.42;63.07;99841.01;135933;1273;22508;-62
2023/05/19 09:54:57;;;;;;;;;;;;;;;18.30;63.68;99840.15;135871;1275;22502;-66
2023/05/19 09:58:02;;;;;;;;;;;;;;;18.43;64.61;99843.97;135990;1275;22498;-65
2023/05/19 10:01:08;;;;;;;;;;;;;;;18.62;63.26;99844.05;135977;1275;22503;-64
2023/05/19 10:04:11;;;;;;;;;;;;;;;18.86;62.62;99845.20;135994;1275;22494;-62
2023/05/19 10:07:16;;;;;;;;;;;;;;;18.84;62.31;99845.39;136005;1275;22544;-63
2023/05/19 10:10:20;;;;;;;;;;;;;;;18.92;62.60;99845.67;135936;1275;22509;-64
2023/05/19 10:13:25;;;;;;;;;;;;;;;18.95;61.93;99841.85;135988;1275;22514;-67
2023/05/19 10:16:28;;;;;;;;;;;;;;;18.91;61.34;99839.34;136029;1275;22550;-64
2023/05/19 10:19:32;;;;;;;;;;;;;;;18.80;62.60;99840.95;135942;1275;22514;-63
2023/05/19 10:22:36;;;;;;;;;;;;;;;18.78;62.55;99838.95;136038;1275;22504;-65
2023/05/19 10:25:41;;;;;;;;;;;;;;;18.79;62.67;99836.75;136008;1275;22511;-63
2023/05/19 10:28:44;;;;;;;;;;;;;;;18.84;62.37;99836.85;135974;1275;22509;-64
2023/05/19 10:31:46;;;;;;;;;;;;;;;18.73;62.62;99835.11;135994;1259;22623;-67
2023/05/19 10:34:50;;;;;;;;;;;;;;;18.84;62.64;99833.70;136005;1275;22639;-62
2023/05/19 10:37:53;;;;;;;;;;;;;;;18.91;62.49;99835.98;136013;1275;22500;-64
2023/05/19 10:40:58;;;;;;;;;;;;;;;18.81;61.88;99832.86;135861;1275;22589;-65
2023/05/19 10:44:01;;;;;;;;;;;;;;;18.72;62.66;99830.54;136024;1275;22518;-65
2023/05/19 10:47:03;;;;;;;;;;;;;;;18.69;62.47;99832.54;136030;1268;22522;-63
2023/05/19 10:50:08;;;;;;;;;;;;;;;18.68;63.02;99833.50;135979;1275;24038;-63
2023/05/19 10:53:11;;;;;;;;;;;;;;;18.68;62.74;99837.55;135949;1275;22519;-63
2023/05/19 10:56:15;;;;;;;;;;;;;;;18.67;63.10;99836.77;135955;1275;22502;-63
2023/05/19 10:59:18;;;;;;;;;;;;;;;18.68;62.84;99837.73;136011;1257;22552;-63
2023/05/19 11:02:22;;;;;;;;;;;;;;;18.77;62.61;99835.96;136010;1275;24284;-64
2023/05/19 11:05:25;;;;;;;;;;;;;;;18.86;62.12;99833.86;135956;1275;23361;-62
2023/05/19 11:08:32;;;;;;;;;;;;;;;18.87;62.15;99833.80;135979;1274;25341;-63
2023/05/19 11:11:36;;;;;;;;;;;;;;;18.85;62.77;99832.33;135937;1275;22526;-63
2023/05/19 11:14:40;;;;;;;;;;;;;;;18.84;62.37;99834.75;135974;1275;22507;-64
2023/05/19 11:17:43;;;;;;;;;;;;;;;18.99;62.47;99830.04;136003;1271;22508;-64
2023/05/19 11:20:47;;;;;;;;;;;;;;;19.16;62.08;99831.73;135963;1275;22540;-65
2023/05/19 11:27:30;;;;;;;;;;;;;;;19.41;61.40;99833.52;135786;1269;22502;-63
2023/05/19 11:30:34;;;;;;;;;;;;;;;19.49;60.50;99833.58;135949;1275;22506;-63
2023/05/19 11:33:38;;;;;;;;;;;;;;;19.51;61.30;99834.02;135971;1275;22512;-64
2023/05/19 11:36:44;;;;;;;;;;;;;;;19.62;60.89;99830.77;136040;1275;24276;-64
2023/05/19 11:39:47;;;;;;;;;;;;;;;19.60;60.30;99833.98;136031;1275;24269;-65
2023/05/19 11:42:51;;;;;;;;;;;;;;;19.63;60.95;99834.98;135936;1275;22508;-64
2023/05/19 11:45:54;;;;;;;;;;;;;;;19.63;60.49;99836.56;136000;1275;22503;-64
2023/05/19 11:48:58;;;;;;;;;;;;;;;19.74;60.65;99843.61;136022;1269;22533;-64
2023/05/19 11:52:01;;;;;;;;;;;;;;;19.76;60.58;99836.73;135944;1275;22519;-63
2023/05/19 11:55:05;;;;;;;;;;;;;;;19.83;60.08;99836.00;135960;1275;24260;-63
2023/05/19 11:58:08;;;;;;;;;;;;;;;19.85;60.09;99836.15;136020;1275;22504;-64
2023/05/19 12:01:12;;;;;;;;;;;;;;;19.77;59.36;99840.55;136040;1275;23680;-65
2023/05/19 12:04:15;;;;;;;;;;;;;;;19.83;59.68;99839.58;136020;1275;22498;-64
2023/05/19 12:07:18;;;;;;;;;;;;;;;19.92;58.89;99841.83;136002;1275;22530;-63
2023/05/19 12:10:22;;;;;;;;;;;;;;;19.83;59.31;99842.05;136017;1275;22578;-64
2023/05/19 12:13:29;;;;;;;;;;;;;;;19.87;59.63;99841.30;135949;1275;22504;-65
2023/05/19 12:16:34;;;;;;;;;;;;;;;19.84;59.05;99843.70;131940;1275;5401185;-64
2023/05/19 12:19:37;;;;;;;;;;;;;;;19.83;59.64;99840.95;136006;1275;22524;-66
2023/05/19 12:22:40;;;;;;;;;;;;;;;19.81;59.61;99837.61;136022;1257;22619;-64
2023/05/19 12:25:43;;;;;;;;;;;;;;;19.90;59.46;99835.61;135974;1275;25489;-65
2023/05/19 12:28:47;;;;;;;;;;;;;;;19.95;58.61;99832.36;136050;1275;22527;-66
2023/05/19 12:31:50;;;;;;;;;;;;;;;19.95;58.39;99831.47;136060;1275;25373;-64
2023/05/19 12:34:53;;;;;;;;;;;;;;;19.81;59.03;99831.16;135955;1256;22499;-64
2023/05/19 12:37:56;;;;;;;;;;;;;;;19.82;59.72;99835.38;136020;1252;22499;-65
2023/05/19 12:41:04;;;;;;;;;;;;;;;19.99;60.09;99832.50;136056;1275;22516;-64
2023/05/19 12:44:07;;;;;;;;;;;;;;;20.20;58.86;99832.02;136028;1275;22578;-63
2023/05/19 12:47:11;;;;;;;;;;;;;;;20.16;58.38;99830.90;135991;1275;22520;-63
2023/05/19 12:50:14;;;;;;;;;;;;;;;20.30;58.02;99828.89;135955;1275;24288;-64
2023/05/19 12:53:17;;;;;;;;;;;;;;;20.38;57.96;99822.30;135980;1275;22512;-63
2023/05/19 12:56:20;;;;;;;;;;;;;;;20.36;57.95;99819.95;136002;1275;22509;-64
2023/05/19 12:59:24;;;;;;;;;;;;;;;20.25;57.18;99818.08;136047;1275;22977;-64
2023/05/19 13:02:27;;;;;;;;;;;;;;;20.09;57.37;99819.65;136008;1275;22553;-63
2023/05/19 13:05:30;;;;;;;;;;;;;;;20.08;57.58;99819.38;136004;1275;22527;-65
2023/05/19 13:08:33;;;;;;;;;;;;;;;20.06;57.73;99814.91;136016;1275;22510;-64
2023/05/19 13:11:36;;;;;;;;;;;;;;;19.99;57.95;99813.70;136029;1275;22515;-65
2023/05/19 13:14:43;;;;;;;;;;;;;;;19.94;58.00;99815.06;136019;1275;22550;-66
2023/05/19 13:17:47;;;;;;;;;;;;;;;19.86;58.58;99819.40;136021;1275;22575;-65
2023/05/19 13:20:51;;;;;;;;;;;;;;;19.89;58.35;99817.58;136070;1275;22504;-62
2023/05/19 13:23:55;;;;;;;;;;;;;;;19.75;58.16;99817.66;136025;1275;22501;-64
2023/05/19 13:27:01;;;;;;;;;;;;;;;19.67;58.97;99817.94;136037;1275;22519;-64
2023/05/19 13:30:05;;;;;;;;;;;;;;;19.80;59.43;99817.45;136046;1275;24234;-65
2023/05/19 13:33:10;;;;;;;;;;;;;;;20.00;58.90;99818.63;136036;1275;22506;-64
2023/05/19 13:36:14;;;;;;;;;;;;;;;20.04;57.57;99817.37;135937;1275;22513;-63
2023/05/19 13:39:18;;;;;;;;;;;;;;;19.82;57.78;99813.58;136020;1275;22507;-65
2023/05/19 13:42:22;;;;;;;;;;;;;;;19.67;58.45;99819.87;135997;1275;22504;-64
2023/05/19 13:45:26;;;;;;;;;;;;;;;19.63;58.13;99817.08;136092;1275;25337;-65
2023/05/19 13:48:29;;;;;;;;;;;;;;;19.63;58.25;99816.11;136020;1275;22517;-65
2023/05/19 13:51:33;;;;;;;;;;;;;;;19.44;58.60;99817.86;136101;1275;22617;-64
2023/05/19 13:54:36;;;;;;;;;;;;;;;19.38;58.68;99816.58;136030;1275;22647;-65
2023/05/19 13:57:40;;;;;;;;;;;;;;;19.34;59.19;99815.50;135905;1275;22528;-64
2023/05/19 14:00:44;;;;;;;;;;;;;;;19.40;59.38;99817.34;135912;1275;22512;-63
2023/05/19 14:03:48;;;;;;;;;;;;;;;19.41;59.95;99816.15;136056;1275;22512;-65
2023/05/19 14:06:52;;;;;;;;;;;;;;;19.56;59.38;99820.84;136075;1275;22513;-66
2023/05/19 14:09:55;;;;;;;;;;;;;;;19.65;59.56;99820.08;136061;1275;22527;-65
2023/05/19 14:12:59;;;;;;;;;;;;;;;19.62;59.11;99821.56;135999;1275;22507;-65
2023/05/19 14:16:03;;;;;;;;;;;;;;;19.43;59.46;99820.79;136061;1275;22563;-64
2023/05/19 14:19:06;;;;;;;;;;;;;;;19.28;59.71;99816.92;136052;1275;22554;-64
2023/05/19 14:22:12;;;;;;;;;;;;;;;19.24;60.00;99820.44;135748;1275;22527;-63
2023/05/19 14:25:15;;;;;;;;;;;;;;;19.04;60.21;99827.01;135864;1275;22585;-66
2023/05/19 14:28:19;;;;;;;;;;;;;;;18.79;61.13;99828.60;135948;1275;25224;-66
2023/05/19 14:31:23;;;;;;;;;;;;;;;18.77;61.05;99834.59;135861;1275;22539;-63
2023/05/19 14:34:27;;;;;;;;;;;;;;;18.68;61.93;99829.48;136141;1275;22507;-64
2023/05/19 14:37:30;;;;;;;;;;;;;;;18.54;61.97;99829.70;135919;1275;25379;-64
2023/05/19 14:40:40;;;;;;;;;;;;;;;18.59;61.91;99832.80;135893;1275;22489;-63
2023/05/19 14:43:42;;;;;;;;;;;;;;;18.57;62.00;99830.67;135920;1275;22524;-65
2023/05/19 14:46:45;;;;;;;;;;;;;;;18.69;62.34;99829.91;135942;1275;25344;-65
2023/05/19 14:49:48;;;;;;;;;;;;;;;18.73;62.61;99833.29;136096;1275;22497;-70
2023/05/19 14:52:51;;;;;;;;;;;;;;;18.80;62.06;99832.77;136067;1257;22497;-68
2023/05/19 14:55:54;;;;;;;;;;;;;;;18.81;62.26;99829.61;135927;1275;22514;-66
2023/05/19 14:58:57;;;;;;;;;;;;;;;18.72;62.46;99826.66;136051;1275;22529;-66
2023/05/19 15:02:00;;;;;;;;;;;;;;;18.87;62.41;99828.99;135962;1275;22503;-68
2023/05/19 15:05:07;;;;;;;;;;;;;;;18.98;61.90;99827.31;136050;1275;22609;-66
2023/05/19 15:08:10;;;;;;;;;;;;;;;18.84;62.00;99830.00;136054;1258;22603;-65
2023/05/19 15:11:13;;;;;;;;;;;;;;;18.79;62.14;99827.52;136038;1258;22632;-67
2023/05/19 15:14:16;;;;;;;;;;;;;;;18.82;62.62;99827.64;135905;1275;22507;-69
2023/05/19 15:17:19;;;;;;;;;;;;;;;18.82;62.71;99828.31;136075;1275;24238;-67
2023/05/19 15:20:21;;;;;;;;;;;;;;;18.80;62.92;99830.77;136031;1275;22531;-68
2023/05/19 15:23:25;;;;;;;;;;;;;;;18.70;62.94;99832.08;136069;1275;22516;-69
2023/05/19 15:26:27;;;;;;;;;;;;;;;18.52;63.60;99828.36;136083;1275;22510;-67
2023/05/19 15:29:30;;;;;;;;;;;;;;;18.52;63.85;99833.86;136084;1275;22523;-66
2023/05/19 15:32:32;;;;;;;;;;;;;;;18.56;63.76;99830.90;136025;1275;22601;-66
2023/05/19 15:35:35;;;;;;;;;;;;;;;18.50;63.55;99830.17;135914;1275;22620;-67
2023/05/19 15:38:38;;;;;;;;;;;;;;;18.44;64.21;99829.40;136034;1275;24184;-66
2023/05/19 15:41:42;;;;;;;;;;;;;;;18.31;64.24;99825.26;136066;1274;22510;-66
2023/05/19 15:44:48;;;;;;;;;;;;;;;18.34;64.51;99826.45;136016;1275;22500;-68
2023/05/19 15:47:52;;;;;;;;;;;;;;;18.38;64.46;99826.50;136058;1275;24219;-64